Time;durP1;ratioP1;P1;durP2;ratioP2;P2;SDS_P1;SDS_P2;PMS_P1;PMS_P2;Temp;Humidity;BMP_temperature;BMP_pressure;BME280_temperature;BME280_humidity;BME280_pressure;Samples;Min_cycle;Max_cycle;Signal;HPM_P1;HPM_P2
2022/04/16 00:01:38;;;;;;;;;15.40;14.40;;;;;17.43;47.38;102019.72;5056989;28;45415;-54
2022/04/16 00:04:03;;;;;;;;;15.60;13.60;;;;;17.36;47.41;102017.03;5058645;28;45238;-53
2022/04/16 00:06:29;;;;;;;;;17.00;15.25;;;;;17.32;47.67;102013.84;5058516;28;45326;-49
2022/04/16 00:08:54;;;;;;;;;16.00;15.00;;;;;17.39;47.42;102021.28;5059020;28;45514;-51
2022/04/16 00:11:20;;;;;;;;;16.00;15.00;;;;;17.37;47.52;102015.94;5058151;28;45356;-52
2022/04/16 00:13:50;;;;;;;;;17.75;15.50;;;;;16.93;47.95;101983.38;5057282;28;45477;-53
2022/04/16 00:16:17;;;;;;;;;14.80;14.80;;;;;17.22;47.96;102016.28;5058223;28;45412;-54
2022/04/16 00:18:44;;;;;;;;;17.80;16.80;;;;;17.23;47.98;102015.19;5058563;28;45664;-52
2022/04/16 00:21:11;;;;;;;;;18.00;16.40;;;;;17.02;48.29;101986.75;5058221;28;46495;-50
2022/04/16 00:23:37;;;;;;;;;18.60;15.20;;;;;17.19;48.41;102019.50;5057781;28;45425;-53
2022/04/16 00:26:03;;;;;;;;;18.25;16.50;;;;;17.14;48.54;102017.38;5074111;28;45390;-49
2022/04/16 00:28:28;;;;;;;;;16.50;15.50;;;;;17.06;48.59;102020.44;5058572;28;45407;-49
2022/04/16 00:30:56;;;;;;;;;17.50;14.50;;;;;16.94;49.25;102011.97;5058003;28;46285;-49
2022/04/16 00:33:21;;;;;;;;;19.20;16.00;;;;;16.89;49.11;102009.00;5058056;28;45279;-50
2022/04/16 00:35:47;;;;;;;;;17.25;16.25;;;;;16.86;49.08;102009.47;5057712;28;45772;-50
2022/04/16 00:38:12;;;;;;;;;13.25;12.75;;;;;16.83;49.52;102016.31;5058378;28;45351;-50
2022/04/16 00:40:39;;;;;;;;;16.00;12.50;;;;;16.92;49.21;102012.19;5039711;28;46017;-51
2022/04/16 00:43:05;;;;;;;;;21.00;16.40;;;;;16.80;49.11;102009.28;5031769;28;45386;-52
2022/04/16 00:45:31;;;;;;;;;18.80;16.20;;;;;16.75;49.53;102003.56;5056866;28;45393;-52
2022/04/16 00:47:58;;;;;;;;;21.00;20.25;;;;;16.72;49.94;102003.16;5056395;28;45467;-52
2022/04/16 00:50:24;;;;;;;;;20.00;17.20;;;;;16.21;49.87;101939.25;5057800;28;46321;-49
2022/04/16 00:52:50;;;;;;;;;24.00;19.50;;;;;16.56;50.46;102010.94;5057752;28;45557;-49
2022/04/16 00:55:15;;;;;;;;;16.50;16.50;;;;;16.49;50.54;101999.03;5057834;28;45361;-52
2022/04/16 00:57:42;;;;;;;;;19.50;15.00;;;;;15.92;51.04;101911.09;5058335;28;45915;-50
2022/04/16 01:00:08;;;;;;;;;16.40;14.80;;;;;16.42;50.77;101999.06;5057384;28;45531;-48
2022/04/16 01:02:37;;;;;;;;;20.80;20.00;;;;;16.28;51.25;101997.41;5057335;28;45362;-49
2022/04/16 01:05:04;;;;;;;;;19.60;19.00;;;;;16.24;51.51;102000.59;5057511;28;45446;-49
2022/04/16 01:07:29;;;;;;;;;19.00;15.80;;;;;16.30;51.11;101998.91;5072837;28;45570;-49
2022/04/16 01:09:55;;;;;;;;;19.50;16.75;;;;;16.32;51.55;101987.59;5038553;28;46716;-51
2022/04/16 01:12:21;;;;;;;;;19.25;18.25;;;;;16.29;51.42;101993.56;5057131;28;45461;-51
2022/04/16 01:14:46;;;;;;;;;18.50;18.50;;;;;16.35;51.11;102001.00;5057461;28;45354;-52
2022/04/16 01:17:15;;;;;;;;;22.75;18.50;;;;;16.38;51.12;102001.41;5039362;28;45273;-50
2022/04/16 01:19:41;;;;;;;;;16.60;16.40;;;;;16.47;50.86;101996.47;5056551;28;47157;-50
2022/04/16 01:22:09;;;;;;;;;21.00;18.40;;;;;16.47;51.03;101995.59;5056807;28;45537;-48
2022/04/16 01:24:37;;;;;;;;;15.40;14.20;;;;;16.29;50.67;101952.88;5039334;28;45435;-48
2022/04/16 01:27:03;;;;;;;;;21.60;18.20;;;;;16.49;50.39;101999.03;5057141;28;45680;-52
2022/04/16 01:29:28;;;;;;;;;17.20;15.40;;;;;16.59;50.59;101999.38;5056692;28;47423;-51
2022/04/16 01:31:54;;;;;;;;;18.75;14.75;;;;;16.47;50.77;101981.75;5056783;28;45489;-49
2022/04/16 01:34:20;;;;;;;;;19.25;15.75;;;;;16.48;51.16;101998.16;5056867;28;45351;-53
2022/04/16 01:36:46;;;;;;;;;16.75;16.75;;;;;16.35;51.36;101984.38;5056993;28;45344;-49
2022/04/16 01:39:12;;;;;;;;;18.60;16.60;;;;;16.42;51.18;101989.91;5056600;28;46166;-49
2022/04/16 01:41:37;;;;;;;;;21.00;19.25;;;;;16.36;51.25;102000.78;5072321;28;45468;-52
2022/04/16 01:44:03;;;;;;;;;21.75;19.75;;;;;16.41;51.24;101997.34;5057227;28;45903;-49
2022/04/16 01:46:29;;;;;;;;;20.50;17.50;;;;;16.39;50.89;101992.03;5056697;28;45572;-52
2022/04/16 01:48:55;;;;;;;;;17.00;16.00;;;;;16.13;51.24;101952.31;5071956;28;45898;-53
2022/04/16 01:51:21;;;;;;;;;20.20;15.60;;;;;16.27;51.74;102002.09;5072033;28;45464;-50
2022/04/16 01:53:47;;;;;;;;;19.60;18.60;;;;;16.18;51.70;101995.13;5058326;28;45176;-52
2022/04/16 01:56:12;;;;;;;;;15.50;15.50;;;;;16.18;51.63;101993.22;5057982;28;45346;-49
2022/04/16 01:58:38;;;;;;;;;21.75;20.00;;;;;16.16;52.07;102003.63;5057896;28;46351;-49
2022/04/16 02:01:05;;;;;;;;;21.40;17.40;;;;;16.26;51.59;102011.47;5046414;28;45475;-52
2022/04/16 02:03:34;;;;;;;;;21.00;19.00;;;;;16.25;51.87;102005.09;5048486;28;45421;-47
2022/04/16 02:05:59;;;;;;;;;24.20;21.40;;;;;16.03;51.84;101984.28;5060626;28;45518;-49
2022/04/16 02:08:25;;;;;;;;;18.25;16.50;;;;;15.79;51.61;101953.47;5052890;28;46296;-49
2022/04/16 02:10:50;;;;;;;;;22.25;19.50;;;;;16.15;51.65;102003.84;5068290;28;45862;-49
2022/04/16 02:13:16;;;;;;;;;20.50;18.75;;;;;16.20;51.78;102004.03;5056141;28;45452;-48
2022/04/16 02:15:41;;;;;;;;;19.75;19.75;;;;;15.97;51.76;101974.97;5055298;28;45421;-52
2022/04/16 02:18:07;;;;;;;;;20.25;19.25;;;;;16.06;51.64;101986.66;5054561;28;45623;-52
2022/04/16 02:20:35;;;;;;;;;22.50;20.00;;;;;16.10;52.17;102005.38;5053656;28;45388;-50
2022/04/16 02:23:01;;;;;;;;;23.20;20.20;;;;;16.04;52.51;102003.47;5056458;28;45241;-49
2022/04/16 02:25:27;;;;;;;;;22.00;20.50;;;;;16.01;52.62;102001.13;5056241;28;45426;-48
2022/04/16 02:27:52;;;;;;;;;20.50;18.75;;;;;16.05;52.25;102002.41;5056009;28;46359;-50
2022/04/16 02:30:18;;;;;;;;;22.00;20.00;;;;;16.04;52.56;102000.69;5055922;28;45489;-55
2022/04/16 02:32:53;;;;;;;;;25.25;23.00;;;;;16.09;52.05;102000.91;5056199;28;45331;-48
2022/04/16 02:35:18;;;;;;;;;27.20;21.60;;;;;16.06;52.43;101990.25;5038072;28;45604;-50
2022/04/16 02:37:44;;;;;;;;;22.75;22.75;;;;;16.17;51.84;102010.88;5055734;28;45952;-49
2022/04/16 02:40:09;;;;;;;;;23.00;22.00;;;;;15.93;52.27;101976.44;5055746;28;45422;-50
2022/04/16 02:42:36;;;;;;;;;22.50;19.00;;;;;16.07;52.01;102016.88;5055856;28;45466;-50
2022/04/16 02:47:46;;;;;;;;;21.80;19.00;;;;;15.92;52.89;102010.75;5037906;27;45389;-50
2022/04/16 02:50:12;;;;;;;;;24.75;23.25;;;;;15.68;52.53;101960.50;5055502;28;45382;-49
2022/04/16 02:52:39;;;;;;;;;23.00;23.00;;;;;15.96;52.25;102004.56;5055530;28;45141;-53
2022/04/16 02:55:05;;;;;;;;;30.60;21.40;;;;;15.98;52.62;102019.06;5056376;28;45575;-49
2022/04/16 02:57:31;;;;;;;;;24.80;23.00;;;;;15.66;53.10;102010.56;5055313;28;45754;-51
2022/04/16 02:59:57;;;;;;;;;32.00;24.80;;;;;15.57;53.27;102004.41;5055051;28;45531;-51
2022/04/16 03:02:22;;;;;;;;;28.25;23.75;;;;;15.45;53.10;101993.16;5053213;28;45444;-48
2022/04/16 03:04:50;;;;;;;;;28.00;23.00;;;;;15.44;53.83;102002.47;5055081;28;45460;-50
2022/04/16 03:07:18;;;;;;;;;24.20;22.40;;;;;15.35;54.38;102011.22;5053497;28;46314;-51
2022/04/16 03:09:44;;;;;;;;;21.20;20.00;;;;;15.23;53.82;102000.81;5052575;28;45401;-54
2022/04/16 03:12:10;;;;;;;;;35.50;27.50;;;;;15.24;54.45;102002.50;5077236;27;45584;-48
2022/04/16 03:17:31;;;;;;;;;23.20;21.00;;;;;15.27;54.19;102007.59;5053979;28;45654;-50
2022/04/16 03:19:57;;;;;;;;;24.60;21.20;;;;;15.36;54.14;102002.72;5044875;28;45287;-52
2022/04/16 03:22:23;;;;;;;;;23.50;20.75;;;;;14.80;53.79;101932.09;5035467;28;45449;-51
2022/04/16 03:24:48;;;;;;;;;21.00;18.25;;;;;15.23;54.67;102002.72;5035481;28;45341;-47
2022/04/16 03:27:14;;;;;;;;;25.00;23.75;;;;;15.14;54.12;101982.72;5035021;28;45477;-54
2022/04/16 03:29:39;;;;;;;;;26.50;25.50;;;;;15.34;53.31;102003.97;5034993;28;45464;-48
2022/04/16 03:32:05;;;;;;;;;26.25;22.50;;;;;15.27;53.45;102002.06;5043576;28;45398;-49
2022/04/16 03:34:31;;;;;;;;;33.60;27.20;;;;;15.08;54.14;102001.00;5058672;28;45654;-50
2022/04/16 03:36:57;;;;;;;;;29.25;24.50;;;;;15.18;53.85;102000.59;5058453;28;46386;-50
2022/04/16 03:39:22;;;;;;;;;17.50;14.00;;;;;15.13;53.97;102000.38;5058635;28;45382;-53
2022/04/16 03:41:48;;;;;;;;;28.25;24.25;;;;;15.15;53.46;101999.09;5057211;28;45383;-49
2022/04/16 03:44:14;;;;;;;;;27.00;21.50;;;;;14.98;53.71;101979.31;5059028;28;45626;-49
2022/04/16 03:46:39;;;;;;;;;27.75;23.75;;;;;15.10;54.22;102003.56;5056870;28;45957;-49
2022/04/16 03:49:05;;;;;;;;;29.50;25.75;;;;;15.19;53.63;102005.03;5058607;28;45364;-49
2022/04/16 03:51:30;;;;;;;;;24.50;21.25;;;;;14.86;53.59;101962.50;5058642;28;45349;-50
2022/04/16 03:59:59;;;;;;;;;26.75;23.00;;;;;15.08;53.97;102000.13;5058577;28;45538;-53
2022/04/16 04:02:09;;;;;;;;;29.60;26.60;;;;;14.61;54.34;101963.06;5058418;28;45482;-47
2022/04/16 04:04:34;;;;;;;;;33.00;27.00;;;;;14.77;54.52;101992.25;5058771;28;45283;-49
2022/04/16 04:07:00;;;;;;;;;25.00;23.75;;;;;14.71;54.40;101978.38;5058061;28;46068;-51
2022/04/16 04:09:25;;;;;;;;;29.25;25.50;;;;;14.89;53.76;101991.66;5057115;28;45748;-48
2022/04/16 04:11:51;;;;;;;;;28.25;24.00;;;;;14.89;54.19;101994.41;5058223;28;45431;-51
2022/04/16 04:14:16;;;;;;;;;28.00;25.75;;;;;14.98;53.78;101989.50;5058393;28;45279;-53
2022/04/16 04:16:42;;;;;;;;;28.50;25.50;;;;;14.96;53.70;101989.72;5057982;28;46004;-50
2022/04/16 04:19:08;;;;;;;;;25.50;24.25;;;;;14.93;53.57;102003.97;5056754;28;45529;-48
2022/04/16 04:21:33;;;;;;;;;26.75;25.00;;;;;14.73;54.21;102004.75;5058132;28;45487;-49
2022/04/16 04:23:58;;;;;;;;;26.75;21.50;;;;;14.50;53.91;101963.66;5058234;28;45538;-50
2022/04/16 04:26:25;;;;;;;;;27.50;25.50;;;;;14.67;54.21;102007.50;5057848;28;46562;-50
2022/04/16 04:28:51;;;;;;;;;36.00;29.20;;;;;14.57;54.48;102002.38;5057897;28;45354;-50
2022/04/16 04:31:17;;;;;;;;;29.25;25.50;;;;;14.54;54.37;102002.78;5057682;28;45411;-50
2022/04/16 04:33:42;;;;;;;;;26.25;25.00;;;;;14.54;54.10;102011.94;5058292;28;45722;-49
2022/04/16 04:36:07;;;;;;;;;27.25;26.00;;;;;14.54;54.57;102020.22;5057580;28;45311;-49
2022/04/16 04:38:33;;;;;;;;;24.25;22.75;;;;;14.59;54.23;102008.53;5057882;28;45275;-50
2022/04/16 04:41:00;;;;;;;;;27.25;23.50;;;;;14.52;54.46;102024.25;5057819;28;45212;-49
2022/04/16 04:43:26;;;;;;;;;28.00;23.80;;;;;14.48;54.34;102018.28;5038214;28;45309;-50
2022/04/16 04:45:51;;;;;;;;;25.50;23.50;;;;;14.52;54.12;102019.59;5052041;28;46050;-51
2022/04/16 04:48:18;;;;;;;;;27.75;22.75;;;;;14.59;54.13;102022.34;5057225;28;45272;-47
2022/04/16 04:50:43;;;;;;;;;33.80;28.20;;;;;14.62;54.02;102020.03;5056321;28;45449;-52
2022/04/16 04:53:09;;;;;;;;;27.00;24.75;;;;;14.64;54.01;102014.28;5056511;28;45473;-50
2022/04/16 04:55:34;;;;;;;;;28.75;25.25;;;;;14.55;54.66;102012.75;5057460;28;45679;-49
2022/04/16 04:58:00;;;;;;;;;35.25;28.50;;;;;14.33;54.88;101997.19;5057463;28;45465;-52
2022/04/16 05:00:25;;;;;;;;;25.75;24.75;;;;;14.34;54.46;102017.38;5057387;28;45384;-52
2022/04/16 05:02:51;;;;;;;;;34.50;30.75;;;;;14.26;55.64;102020.31;5057435;28;45596;-53
2022/04/16 05:05:17;;;;;;;;;30.75;25.00;;;;;14.33;54.67;102022.06;5057192;28;45599;-49
2022/04/16 05:07:42;;;;;;;;;25.75;22.00;;;;;14.37;55.09;102017.81;5055917;28;45497;-48
2022/04/16 05:10:08;;;;;;;;;27.75;25.50;;;;;14.37;54.99;102028.03;5057500;28;45374;-53
2022/04/16 05:12:33;;;;;;;;;30.50;28.00;;;;;14.35;54.97;102021.81;5057262;28;45365;-49
2022/04/16 05:14:59;;;;;;;;;28.25;26.00;;;;;14.46;54.84;102028.69;5057526;28;46565;-50
2022/04/16 05:17:24;;;;;;;;;32.00;27.00;;;;;14.52;54.34;102030.63;5057077;28;45478;-51
2022/04/16 05:19:50;;;;;;;;;27.50;25.50;;;;;14.18;54.17;101986.31;5057315;28;45305;-51
2022/04/16 05:22:16;;;;;;;;;29.25;27.50;;;;;14.27;55.17;102044.09;5057271;28;45315;-48
2022/04/16 05:24:41;;;;;;;;;29.00;24.25;;;;;14.18;55.17;102018.56;5072683;28;47090;-54
2022/04/16 05:27:09;;;;;;;;;29.00;27.75;;;;;13.66;54.47;101925.13;5057126;28;45277;-49
2022/04/16 05:29:48;;;;;;;;;30.60;26.20;;;;;14.42;54.45;102043.97;5056909;28;45491;-48
2022/04/16 05:32:16;;;;;;;;;27.80;25.40;;;;;14.31;55.08;102046.25;5057454;28;45357;-49
2022/04/16 05:34:42;;;;;;;;;31.00;26.00;;;;;13.95;55.02;101997.66;5056757;28;45355;-54
2022/04/16 05:37:08;;;;;;;;;30.25;27.00;;;;;14.15;54.44;102022.59;5056951;28;45829;-50
2022/04/16 05:39:34;;;;;;;;;34.50;30.00;;;;;14.13;54.71;102026.63;5056697;28;45519;-51
2022/04/16 05:41:59;;;;;;;;;30.00;27.40;;;;;14.17;55.12;102045.34;5056053;28;45477;-49
2022/04/16 05:44:24;;;;;;;;;30.25;28.25;;;;;14.14;55.46;102067.81;5055536;28;47621;-49
2022/04/16 05:46:50;;;;;;;;;36.25;33.50;;;;;13.93;54.77;102024.63;5056492;28;45289;-51
2022/04/16 05:49:16;;;;;;;;;34.75;29.50;;;;;14.21;54.91;102065.94;5057178;28;45347;-49
2022/04/16 05:51:41;;;;;;;;;30.50;28.00;;;;;14.18;54.71;102060.84;5056745;28;45393;-50
2022/04/16 05:54:06;;;;;;;;;32.00;27.25;;;;;14.26;54.98;102070.00;5056311;28;46409;-48
2022/04/16 05:56:32;;;;;;;;;31.50;26.00;;;;;14.18;54.60;102071.91;5056423;28;45352;-51
2022/04/16 05:58:59;;;;;;;;;34.25;30.00;;;;;14.04;55.20;102067.34;5038377;28;45353;-49
2022/04/16 06:01:25;;;;;;;;;31.40;30.40;;;;;14.15;55.20;102080.56;5057037;28;45416;-50
2022/04/16 06:03:50;;;;;;;;;33.50;28.75;;;;;14.11;55.47;102073.75;5056447;28;45820;-50
2022/04/16 06:06:16;;;;;;;;;31.33;29.33;;;;;14.07;55.23;102081.59;5056581;28;45317;-50
2022/04/16 06:08:41;;;;;;;;;36.50;31.00;;;;;13.79;55.17;102024.53;5055646;28;45351;-50
2022/04/16 06:11:07;;;;;;;;;34.00;32.00;;;;;14.25;54.82;102087.66;5055673;28;45438;-51
2022/04/16 06:13:33;;;;;;;;;32.50;28.25;;;;;14.26;54.34;102068.13;5032334;28;46064;-55
2022/04/16 06:15:59;;;;;;;;;35.00;26.75;;;;;14.29;55.09;102083.44;5056527;28;45406;-52
2022/04/16 06:18:24;;;;;;;;;37.50;33.00;;;;;14.17;54.54;102063.81;5056621;28;45304;-48
2022/04/16 06:20:50;;;;;;;;;41.50;34.25;;;;;14.27;54.96;102074.47;5055491;28;45777;-51
2022/04/16 06:23:15;;;;;;;;;32.25;28.50;;;;;14.27;54.98;102091.03;5054956;28;45469;-50
2022/04/16 06:25:41;;;;;;;;;33.25;32.75;;;;;14.30;54.51;102082.38;5056514;28;45367;-49
2022/04/16 06:28:06;;;;;;;;;40.50;32.50;;;;;14.29;54.85;102092.56;5056324;28;45432;-49
2022/04/16 06:30:32;;;;;;;;;34.50;31.00;;;;;14.31;54.89;102095.94;5055645;28;45520;-49
2022/04/16 06:32:57;;;;;;;;;32.50;29.25;;;;;14.03;54.20;102033.38;5055980;28;45362;-52
2022/04/16 06:35:24;;;;;;;;;40.75;33.50;;;;;14.43;54.65;102096.25;5056618;28;45254;-49
2022/04/16 06:37:49;;;;;;;;;41.00;33.60;;;;;14.47;54.01;102094.75;5054963;28;45357;-52
2022/04/16 06:40:15;;;;;;;;;39.25;35.00;;;;;14.26;54.50;102062.59;5056635;28;45401;-48
2022/04/16 06:42:40;;;;;;;;;44.50;34.75;;;;;14.45;54.01;102098.78;5054938;28;45456;-49
2022/04/16 06:45:08;;;;;;;;;38.75;33.50;;;;;14.55;53.82;102095.63;5056241;28;45357;-49
2022/04/16 06:47:34;;;;;;;;;37.80;31.80;;;;;14.58;54.19;102093.31;5056246;28;45431;-55
2022/04/16 06:50:00;;;;;;;;;39.75;34.75;;;;;14.46;54.52;102093.06;5055155;28;45400;-51
2022/04/16 06:52:25;;;;;;;;;33.00;31.80;;;;;14.47;54.55;102086.47;5054839;28;48275;-51
2022/04/16 06:54:51;;;;;;;;;38.25;34.50;;;;;14.36;54.60;102079.63;5055723;28;45416;-50
2022/04/16 06:57:16;;;;;;;;;39.00;33.00;;;;;14.40;54.70;102085.59;5032018;27;45518;-50
2022/04/16 06:59:42;;;;;;;;;34.00;32.00;;;;;14.48;53.97;102079.88;5054581;28;45418;-52
2022/04/16 07:02:08;;;;;;;;;35.50;29.00;;;;;14.52;54.05;102093.31;5054823;28;46701;-51
2022/04/16 07:04:34;;;;;;;;;39.60;34.20;;;;;14.34;54.14;102080.88;5055615;28;45738;-53
2022/04/16 07:06:59;;;;;;;;;39.75;33.75;;;;;14.24;53.58;102039.84;5087356;27;45265;-50
2022/04/16 07:09:25;;;;;;;;;38.75;33.50;;;;;14.52;54.09;102082.25;5055806;28;45609;-51
2022/04/16 07:11:51;;;;;;;;;33.00;28.75;;;;;14.56;53.92;102078.03;5053677;28;46590;-54
2022/04/16 07:14:16;;;;;;;;;32.75;29.50;;;;;14.59;53.79;102077.59;5054869;28;45290;-53
2022/04/16 07:16:42;;;;;;;;;36.25;32.00;;;;;14.66;53.78;102081.25;5039684;28;45397;-52
2022/04/16 07:19:08;;;;;;;;;38.75;34.50;;;;;14.70;54.07;102082.53;5051493;28;45302;-50
2022/04/16 07:21:33;;;;;;;;;37.00;32.60;;;;;14.50;53.51;102063.97;5049264;28;47181;-50
2022/04/16 07:23:59;;;;;;;;;37.25;34.25;;;;;14.55;53.75;102073.53;5048643;28;45477;-53
2022/04/16 07:26:24;;;;;;;;;40.00;33.75;;;;;14.55;54.07;102077.16;5054586;28;45373;-48
2022/04/16 07:28:50;;;;;;;;;37.50;34.25;;;;;14.54;54.20;102081.00;5055439;28;45412;-51
2022/04/16 07:31:16;;;;;;;;;39.50;32.75;;;;;14.56;53.78;102081.63;5054662;28;46215;-53
2022/04/16 07:33:41;;;;;;;;;37.50;32.00;;;;;14.67;53.98;102082.09;5035086;28;45416;-54
2022/04/16 07:36:07;;;;;;;;;35.50;33.00;;;;;14.67;53.62;102076.59;5052598;28;45433;-49
2022/04/16 07:38:32;;;;;;;;;41.50;35.25;;;;;14.23;53.55;102022.44;5053191;28;45419;-50
2022/04/16 07:40:58;;;;;;;;;33.00;28.50;;;;;14.66;53.58;102081.25;5053856;28;46595;-54
2022/04/16 07:43:23;;;;;;;;;33.50;31.00;;;;;14.77;52.77;102072.41;5053872;28;45466;-49
2022/04/16 07:45:49;;;;;;;;;36.75;29.25;;;;;14.95;52.61;102090.31;5052238;28;45325;-55
2022/04/16 07:48:14;;;;;;;;;41.75;36.25;;;;;15.00;52.17;102093.28;5052272;28;45763;-50
2022/04/16 07:50:40;;;;;;;;;38.25;32.50;;;;;14.93;52.67;102094.34;5086635;27;47351;-49
2022/04/16 07:53:06;;;;;;;;;39.75;32.50;;;;;14.83;52.71;102092.81;5053287;28;45404;-55
2022/04/16 07:55:33;;;;;;;;;39.60;33.60;;;;;14.90;52.29;102099.22;5052949;28;45413;-58
2022/04/16 07:57:59;;;;;;;;;38.00;34.00;;;;;14.72;52.75;102057.44;5046173;27;45452;-54
2022/04/16 08:00:24;;;;;;;;;41.50;33.75;;;;;15.02;51.77;102093.94;5052984;28;46066;-56
2022/04/16 08:02:50;;;;;;;;;35.00;31.50;;;;;15.03;51.65;102094.78;5087278;27;45242;-53
2022/04/16 08:05:16;;;;;;;;;38.00;31.50;;;;;15.06;51.99;102107.34;5054630;28;45423;-56
2022/04/16 08:07:41;;;;;;;;;35.75;31.00;;;;;15.12;52.23;102103.75;5055222;28;45603;-54
2022/04/16 08:10:07;;;;;;;;;39.25;32.75;;;;;15.16;51.68;102096.75;5055129;28;45408;-48
2022/04/16 08:12:33;;;;;;;;;33.00;28.60;;;;;15.00;51.48;102087.75;5053296;28;45393;-53
2022/04/16 08:14:58;;;;;;;;;35.25;31.00;;;;;15.00;51.99;102087.75;5055242;28;45385;-60
2022/04/16 08:17:24;;;;;;;;;40.75;34.50;;;;;15.10;51.74;102098.41;5055773;28;45502;-59
2022/04/16 08:19:49;;;;;;;;;39.00;33.75;;;;;15.22;51.75;102101.44;5057961;28;47024;-56
2022/04/16 08:22:20;;;;;;;;;42.25;33.25;;;;;15.20;51.66;102111.00;5058396;28;45476;-60
2022/04/16 08:24:54;;;;;;;;;39.40;32.20;;;;;15.33;51.39;102108.25;5056842;28;45443;-54
2022/04/16 08:27:21;;;;;;;;;31.80;27.60;;;;;15.29;51.26;102112.50;5058650;28;45869;-51
2022/04/16 08:29:47;;;;;;;;;28.40;25.80;;;;;15.23;51.26;102114.19;5057848;28;45979;-58
2022/04/16 08:32:12;;;;;;;;;31.80;30.40;;;;;15.34;51.41;102120.16;5058056;28;45349;-58
2022/04/16 08:34:38;;;;;;;;;28.50;27.50;;;;;15.45;51.62;102120.41;5056291;28;45400;-54
2022/04/16 08:37:03;;;;;;;;;27.75;27.00;;;;;15.46;50.89;102115.69;5024637;28;45514;-61
2022/04/16 08:39:29;;;;;;;;;34.00;30.50;;;;;15.54;51.01;102118.25;5058022;28;46495;-56
2022/04/16 08:41:56;;;;;;;;;32.00;26.75;;;;;15.67;50.51;102122.09;5057875;28;45286;-58
2022/04/16 08:44:22;;;;;;;;;38.60;32.40;;;;;15.67;50.81;102111.88;5056845;28;45343;-56
2022/04/16 08:46:48;;;;;;;;;29.80;27.00;;;;;15.75;50.53;102121.91;5056703;28;45403;-56
2022/04/16 08:49:14;;;;;;;;;32.00;27.25;;;;;15.80;50.34;102122.09;5056412;28;46434;-59
2022/04/16 08:51:40;;;;;;;;;30.60;29.00;;;;;15.68;50.65;102077.59;5057971;28;45387;-55
2022/04/16 08:54:05;;;;;;;;;38.75;26.75;;;;;15.93;49.99;102117.66;5056704;28;45414;-57
2022/04/16 08:56:32;;;;;;;;;28.25;24.75;;;;;15.97;50.17;102121.69;5047570;27;45596;-51
2022/04/16 08:58:57;;;;;;;;;31.00;29.60;;;;;16.02;50.01;102121.91;5057369;28;46504;-53
2022/04/16 09:01:23;;;;;;;;;28.75;25.75;;;;;15.92;49.46;102105.75;5055929;28;45387;-53
2022/04/16 09:03:49;;;;;;;;;28.00;25.25;;;;;16.09;49.35;102127.44;5072636;28;45344;-51
2022/04/16 09:06:21;;;;;;;;;37.50;32.25;;;;;15.87;49.88;102080.59;5057393;28;45613;-51
2022/04/16 09:08:47;;;;;;;;;29.60;23.00;;;;;16.12;49.72;102121.47;5057126;28;46063;-57
2022/04/16 09:11:13;;;;;;;;;34.00;30.75;;;;;16.18;50.34;102122.53;5056837;28;45359;-49
2022/04/16 09:13:54;;;;;;;;;31.00;25.25;;;;;16.04;49.57;102077.38;5071478;28;45444;-52
2022/04/16 09:16:20;;;;;;;;;38.80;32.20;;;;;16.38;49.55;102122.47;5057496;28;45413;-52
2022/04/16 09:18:54;;;;;;;;;39.40;31.80;;;;;16.23;49.42;102082.00;5072511;28;47828;-54
2022/04/16 09:21:24;;;;;;;;;39.40;30.60;;;;;16.55;49.33;102119.22;5056961;28;45399;-56
2022/04/16 09:23:52;;;;;;;;;32.00;30.40;;;;;15.79;49.23;101982.00;5055711;28;45337;-53
2022/04/16 09:26:32;;;;;;;;;31.20;27.60;;;;;16.69;48.76;102117.25;5055655;28;45262;-51
2022/04/16 09:29:18;;;;;;;;;34.00;29.40;;;;;16.72;49.09;102106.59;5055991;28;46201;-51
2022/04/16 09:31:48;;;;;;;;;41.20;31.20;;;;;16.62;48.96;102084.00;5057047;28;45439;-51
2022/04/16 09:34:23;;;;;;;;;33.20;29.80;;;;;16.63;48.55;102063.53;5055489;28;45348;-52
2022/04/16 09:36:50;;;;;;;;;32.80;31.80;;;;;16.94;48.52;102100.72;5055839;28;45518;-53
2022/04/16 09:39:16;;;;;;;;;27.00;25.60;;;;;16.97;48.69;102104.97;5088584;27;45431;-55
2022/04/16 09:41:44;;;;;;;;;36.00;31.50;;;;;16.78;48.50;102069.66;5057284;28;45485;-59
2022/04/16 09:44:17;;;;;;;;;36.40;29.20;;;;;16.95;48.73;102085.75;5056453;28;45380;-55
2022/04/16 09:46:47;;;;;;;;;32.60;27.40;;;;;17.04;48.55;102098.31;5056110;28;45429;-56
2022/04/16 09:49:13;;;;;;;;;25.00;25.00;;;;;17.12;48.27;102107.47;5053036;28;47543;-53
2022/04/16 09:51:41;;;;;;;;;31.80;26.60;;;;;17.16;48.30;102095.69;5056929;28;45423;-52
2022/04/16 09:54:06;;;;;;;;;33.00;28.40;;;;;17.18;47.58;102073.28;5055164;28;45530;-52
2022/04/16 09:56:39;;;;;;;;;31.50;30.25;;;;;17.34;47.73;102091.28;5062367;27;45396;-53
2022/04/16 09:59:06;;;;;;;;;32.00;28.40;;;;;17.35;47.50;102084.69;5051107;28;46208;-50
2022/04/16 10:01:32;;;;;;;;;29.60;26.20;;;;;17.44;47.36;102093.56;5055364;28;45549;-51
2022/04/16 10:04:00;;;;;;;;;32.40;27.60;;;;;17.49;46.98;102088.19;5053160;28;45889;-48
2022/04/16 10:06:29;;;;;;;;;25.00;23.00;;;;;17.40;46.83;102064.59;5053700;28;45433;-51
2022/04/16 10:08:56;;;;;;;;;26.20;21.80;;;;;17.66;45.87;102095.97;5053306;28;48171;-49
2022/04/16 10:14:16;;;;;;;;;21.40;20.40;;;;;17.72;45.49;102086.75;5002831;28;45412;-48
2022/04/16 10:16:50;;;;;;;;;21.80;21.80;;;;;17.69;45.74;102062.19;5017324;28;45538;-52
2022/04/16 10:19:16;;;;;;;;;30.40;25.40;;;;;17.83;45.24;102071.25;5023855;28;45524;-50
2022/04/16 10:21:42;;;;;;;;;22.25;21.25;;;;;17.97;44.82;102099.72;5053259;28;45634;-50
2022/04/16 10:24:07;;;;;;;;;25.00;23.00;;;;;18.06;44.66;102094.75;5056089;28;45389;-53
2022/04/16 10:26:39;;;;;;;;;22.25;20.50;;;;;18.16;45.44;102097.88;5055600;28;45585;-59
2022/04/16 10:29:05;;;;;;;;;31.80;29.00;;;;;18.22;45.00;102091.41;5056263;28;46378;-53
2022/04/16 10:31:32;;;;;;;;;22.50;22.50;;;;;18.31;44.40;102085.53;5055774;28;45246;-52
2022/04/16 10:34:04;;;;;;;;;21.40;21.40;;;;;18.02;44.11;102034.09;5054362;28;45409;-49
2022/04/16 10:36:52;;;;;;;;;21.20;21.00;;;;;18.46;43.90;102093.47;5061047;28;45377;-51
2022/04/16 10:39:24;;;;;;;;;26.40;23.80;;;;;18.46;43.25;102082.38;5030606;28;46702;-49
2022/04/16 10:41:55;;;;;;;;;16.40;15.80;;;;;18.48;43.55;102092.16;5033157;28;45359;-49
2022/04/16 10:44:20;;;;;;;;;21.60;19.80;;;;;18.56;43.13;102083.50;5035384;28;45458;-48
2022/04/16 10:46:47;;;;;;;;;19.25;18.25;;;;;18.64;42.66;102084.25;5042609;28;45690;-49
2022/04/16 10:49:13;;;;;;;;;19.80;17.20;;;;;18.68;42.64;102080.78;5071093;28;45839;-51
2022/04/16 10:51:39;;;;;;;;;16.80;15.80;;;;;18.64;42.08;102067.59;5055422;28;45468;-50
2022/04/16 10:54:09;;;;;;;;;15.25;14.25;;;;;18.68;40.02;102086.34;5055962;28;45396;-47
2022/04/16 10:56:39;;;;;;;;;14.20;13.00;;;;;18.69;41.03;102076.06;5049296;28;45463;-48
2022/04/16 10:59:05;;;;;;;;;14.80;10.80;;;;;18.82;40.91;102070.34;5053999;28;46471;-49
2022/04/16 11:01:30;;;;;;;;;16.75;15.75;;;;;18.88;41.06;102065.75;5055039;28;45565;-51
2022/04/16 11:03:56;;;;;;;;;15.50;12.50;;;;;19.07;40.64;102083.28;5054218;28;45500;-49
2022/04/16 11:06:35;;;;;;;;;13.75;13.50;;;;;19.20;40.30;102075.78;5054823;28;45402;-47
2022/04/16 11:09:01;;;;;;;;;15.40;15.40;;;;;19.33;38.85;102078.38;5055038;28;45769;-49
2022/04/16 11:11:26;;;;;;;;;15.25;15.25;;;;;19.45;38.76;102078.41;5054247;28;45310;-48
2022/04/16 11:13:52;;;;;;;;;13.25;13.00;;;;;19.33;39.62;102050.53;5055035;28;45419;-49
2022/04/16 11:16:21;;;;;;;;;14.50;14.00;;;;;19.47;39.37;102065.09;5088229;27;45388;-48
2022/04/16 11:18:47;;;;;;;;;16.60;14.60;;;;;19.54;38.90;102053.84;5055298;28;46471;-51
2022/04/16 11:21:18;;;;;;;;;18.00;15.40;;;;;19.68;39.05;102060.00;5055293;28;45904;-50